Potsdam, New York
Current Conditions -  °F | °C
As of 1:53 AM on Thursday 23 Oct 2014 (Local Time) from KMSS Reporting Station
Clear Clear  
Wind Chill: 37°   Ceiling: Unl
Heat Index: 44°   Visibility: 10mi
Dew Point: 35°   Wind: 14mph
Humidity: 71%   Direction: 30°NNE
Pressure: 30.15"   Gusts: NA
Location:  44.67°N, 74.98°W
Report Text: KMSS 230553Z AUTO 03012KT 10SM CLR 07/02 A3015 RMK AO2 SLP212 T00670017 10100 20061 57016
Loading
Personal Weather Stations






























Interactive Weather Map New forecast layout! Learn more

10-Day Weather Forecast

Advertisements
Track Severe Weather on mobile